Time,TemperatureF,DewpointF,PressureIn,WindDirection,WindDirectionDegrees,WindSpeedMPH,WindSpeedGustMPH,Humidity,HourlyPrecipIn,Conditions,Clouds,dailyrainin,SolarRadiationWatts/m^2,SoftwareType,DateUTC
2014-07-30 00:01:00,57.7,57.7,29.95,SE,129,0.0,-999.0,100,0.00,,,0.00,0,WeatherHawk,2014-07-30 05:01:00,
2014-07-30 00:06:00,57.1,57.1,29.95,SE,142,0.0,-999.0,100,0.00,,,0.00,0,WeatherHawk,2014-07-30 05:06:00,
2014-07-30 00:11:00,57.0,57.0,29.96,SE,142,0.0,-999.0,100,0.00,,,0.00,0,WeatherHawk,2014-07-30 05:11:00,
2014-07-30 00:16:00,57.5,57.5,29.96,WSW,248,0.0,-999.0,100,0.00,,,0.00,0,WeatherHawk,2014-07-30 05:16:00,
2014-07-30 00:22:00,57.5,57.5,29.96,WSW,246,0.0,-999.0,100,0.00,,,0.00,0,WeatherHawk,2014-07-30 05:22:00,
2014-07-30 00:27:00,57.3,57.3,29.96,WSW,246,0.0,-999.0,100,0.00,,,0.00,0,WeatherHawk,2014-07-30 05:27:00,
2014-07-30 00:36:00,57.9,57.9,29.95,WSW,246,0.0,-999.0,100,0.00,,,0.00,0,WeatherHawk,2014-07-30 05:36:00,
2014-07-30 00:41:00,58.3,58.3,29.96,SW,234,0.0,-999.0,100,0.00,,,0.00,0,WeatherHawk,2014-07-30 05:41:00,
2014-07-30 00:46:00,58.4,58.4,29.96,SW,220,0.0,-999.0,100,0.00,,,0.00,0,WeatherHawk,2014-07-30 05:46:00,
2014-07-30 00:57:00,58.1,58.1,29.95,SW,235,1.0,-999.0,100,0.00,,,0.00,0,WeatherHawk,2014-07-30 05:57:00,
2014-07-30 01:07:00,58.1,58.1,29.95,SW,228,0.0,-999.0,100,0.00,,,0.00,0,WeatherHawk,2014-07-30 06:07:00,
2014-07-30 01:17:00,57.4,57.4,29.95,SW,228,0.0,-999.0,100,0.00,,,0.00,0,WeatherHawk,2014-07-30 06:17:00,
2014-07-30 01:49:00,57.6,57.6,29.94,WSW,240,0.0,-999.0,100,0.00,,,0.00,0,WeatherHawk,2014-07-30 06:49:00,
2014-07-30 02:07:00,57.8,57.8,29.95,WSW,243,0.0,-999.0,100,0.00,,,0.00,0,WeatherHawk,2014-07-30 07:07:00,
2014-07-30 02:13:00,58.0,58.0,29.94,WSW,252,0.0,-999.0,100,0.00,,,0.00,0,WeatherHawk,2014-07-30 07:13:00,
2014-07-30 02:22:00,57.8,57.8,29.95,WSW,248,0.0,-999.0,100,0.00,,,0.00,0,WeatherHawk,2014-07-30 07:22:00,
2014-07-30 02:31:00,57.5,57.5,29.94,WSW,248,0.0,-999.0,100,0.00,,,0.00,0,WeatherHawk,2014-07-30 07:31:00,
2014-07-30 02:36:00,57.8,57.8,29.94,WSW,248,0.0,-999.0,100,0.00,,,0.00,1,WeatherHawk,2014-07-30 07:36:00,
2014-07-30 02:42:00,58.0,58.0,29.95,WSW,248,0.0,-999.0,100,0.00,,,0.00,0,WeatherHawk,2014-07-30 07:42:00,
2014-07-30 02:52:00,57.3,57.3,29.94,WSW,248,0.0,-999.0,100,0.00,,,0.00,0,WeatherHawk,2014-07-30 07:52:00,
2014-07-30 03:02:00,57.1,57.1,29.93,WSW,238,0.0,-999.0,100,0.00,,,0.00,1,WeatherHawk,2014-07-30 08:02:00,
2014-07-30 03:07:00,57.4,57.4,29.94,WSW,248,0.0,-999.0,100,0.00,,,0.00,0,WeatherHawk,2014-07-30 08:07:00,
2014-07-30 03:12:00,57.8,57.8,29.93,West,261,0.0,-999.0,100,0.00,,,0.00,0,WeatherHawk,2014-07-30 08:12:00,
2014-07-30 03:22:00,58.0,58.0,29.94,SW,230,0.0,-999.0,100,0.00,,,0.00,0,WeatherHawk,2014-07-30 08:22:00,
2014-07-30 03:27:00,58.2,58.2,29.95,WSW,246,0.0,-999.0,100,0.00,,,0.00,0,WeatherHawk,2014-07-30 08:27:00,
2014-07-30 03:36:00,58.4,58.4,29.94,NW,311,0.0,-999.0,100,0.00,,,0.00,0,WeatherHawk,2014-07-30 08:36:00,
2014-07-30 03:42:00,58.1,58.1,29.94,West,267,0.0,-999.0,100,0.00,,,0.00,0,WeatherHawk,2014-07-30 08:42:00,
2014-07-30 03:51:00,57.8,57.8,29.95,West,267,0.0,-999.0,100,0.00,,,0.00,0,WeatherHawk,2014-07-30 08:51:00,
2014-07-30 03:56:00,57.7,57.7,29.94,West,267,0.0,-999.0,100,0.00,,,0.00,0,WeatherHawk,2014-07-30 08:56:00,
2014-07-30 04:02:00,57.8,57.8,29.95,West,267,0.0,-999.0,100,0.00,,,0.00,0,WeatherHawk,2014-07-30 09:02:00,
2014-07-30 04:11:00,57.3,57.3,29.94,West,261,0.0,-999.0,100,0.00,,,0.00,0,WeatherHawk,2014-07-30 09:11:00,
2014-07-30 04:16:00,56.6,56.6,29.95,West,261,0.0,-999.0,100,0.00,,,0.00,0,WeatherHawk,2014-07-30 09:16:00,
2014-07-30 04:21:00,56.5,56.5,29.95,West,261,0.0,-999.0,100,0.00,,,0.00,0,WeatherHawk,2014-07-30 09:21:00,
2014-07-30 04:27:00,56.1,56.1,29.95,West,261,0.0,-999.0,100,0.00,,,0.00,1,WeatherHawk,2014-07-30 09:27:00,
2014-07-30 04:32:00,54.6,54.6,29.95,West,261,0.0,-999.0,100,0.00,,,0.00,0,WeatherHawk,2014-07-30 09:32:00,
2014-07-30 04:41:00,56.1,56.1,29.95,West,261,0.0,-999.0,100,0.00,,,0.00,0,WeatherHawk,2014-07-30 09:41:00,
2014-07-30 04:47:00,57.2,57.2,29.95,WNW,299,0.0,-999.0,100,0.00,,,0.00,1,WeatherHawk,2014-07-30 09:47:00,
2014-07-30 04:56:00,56.0,56.0,29.95,NW,314,0.0,-999.0,100,0.00,,,0.00,1,WeatherHawk,2014-07-30 09:56:00,
2014-07-30 05:02:00,56.2,56.2,29.95,NW,314,0.0,-999.0,100,0.00,,,0.00,0,WeatherHawk,2014-07-30 10:02:00,
2014-07-30 05:11:00,55.7,55.7,29.95,NW,314,0.0,-999.0,100,0.00,,,0.00,0,WeatherHawk,2014-07-30 10:11:00,
2014-07-30 05:17:00,55.6,55.6,29.95,NW,314,0.0,-999.0,100,0.00,,,0.00,0,WeatherHawk,2014-07-30 10:17:00,
2014-07-30 05:26:00,54.8,54.8,29.95,NW,304,0.0,-999.0,100,0.00,,,0.00,0,WeatherHawk,2014-07-30 10:26:00,
2014-07-30 05:31:00,55.5,55.5,29.95,West,268,0.0,-999.0,100,0.00,,,0.00,0,WeatherHawk,2014-07-30 10:31:00,
2014-07-30 05:42:00,55.6,55.6,29.95,WSW,256,0.0,-999.0,100,0.00,,,0.00,2,WeatherHawk,2014-07-30 10:42:00,
2014-07-30 05:47:00,55.6,55.6,29.96,WSW,256,0.0,-999.0,100,0.00,,,0.00,3,WeatherHawk,2014-07-30 10:47:00,
2014-07-30 05:52:00,55.2,55.2,29.96,WSW,256,0.0,-999.0,100,0.00,,,0.00,6,WeatherHawk,2014-07-30 10:52:00,
2014-07-30 06:02:00,55.6,55.6,29.96,WSW,256,0.0,-999.0,100,0.00,,,0.00,12,WeatherHawk,2014-07-30 11:02:00,
2014-07-30 06:11:00,55.2,55.2,29.96,WSW,256,0.0,-999.0,100,0.00,,,0.00,20,WeatherHawk,2014-07-30 11:11:00,
2014-07-30 06:17:00,55.5,55.5,29.96,WSW,256,0.0,-999.0,100,0.00,,,0.00,29,WeatherHawk,2014-07-30 11:17:00,
2014-07-30 06:27:00,56.6,56.6,29.97,WNW,298,0.0,-999.0,100,0.00,,,0.00,45,WeatherHawk,2014-07-30 11:27:00,
2014-07-30 06:37:00,57.3,57.3,29.97,West,262,1.0,-999.0,100,0.00,,,0.00,66,WeatherHawk,2014-07-30 11:37:00,
2014-07-30 06:42:00,57.9,57.9,29.96,WNW,286,0.0,-999.0,100,0.00,,,0.00,76,WeatherHawk,2014-07-30 11:42:00,
2014-07-30 06:52:00,58.6,58.6,29.97,WNW,298,0.0,-999.0,100,0.00,,,0.00,98,WeatherHawk,2014-07-30 11:52:00,
2014-07-30 07:02:00,58.9,58.9,29.97,NW,311,4.0,-999.0,100,0.00,,,0.00,123,WeatherHawk,2014-07-30 12:02:00,
2014-07-30 07:07:00,58.9,58.9,29.98,WNW,299,0.0,-999.0,100,0.00,,,0.00,137,WeatherHawk,2014-07-30 12:07:00,
2014-07-30 07:16:00,60.5,57.9,29.97,West,276,0.0,-999.0,91,0.00,,,0.00,157,WeatherHawk,2014-07-30 12:16:00,
2014-07-30 07:22:00,61.1,56.9,29.98,WNW,284,0.0,-999.0,86,0.00,,,0.00,169,WeatherHawk,2014-07-30 12:22:00,
2014-07-30 07:27:00,60.2,55.3,29.97,WNW,287,2.0,-999.0,84,0.00,,,0.00,181,WeatherHawk,2014-07-30 12:27:00,
2014-07-30 07:36:00,60.1,54.6,29.98,NW,308,2.0,-999.0,82,0.00,,,0.00,194,WeatherHawk,2014-07-30 12:36:00,
2014-07-30 07:42:00,61.1,54.9,29.98,WNW,297,3.0,-999.0,80,0.00,,,0.00,211,WeatherHawk,2014-07-30 12:42:00,
2014-07-30 07:47:00,62.3,56.1,29.98,NW,313,0.0,-999.0,80,0.00,,,0.00,225,WeatherHawk,2014-07-30 12:47:00,
2014-07-30 07:57:00,61.0,53.4,29.98,North,0,2.0,-999.0,76,0.00,,,0.00,252,WeatherHawk,2014-07-30 12:57:00,
2014-07-30 08:06:00,62.3,53.9,29.98,NE,52,2.0,-999.0,74,0.00,,,0.00,281,WeatherHawk,2014-07-30 13:06:00,
2014-07-30 08:11:00,61.6,53.2,29.99,NW,324,1.0,-999.0,74,0.00,,,0.00,238,WeatherHawk,2014-07-30 13:11:00,
2014-07-30 08:16:00,62.4,52.5,29.99,NW,309,1.0,-999.0,70,0.00,,,0.00,313,WeatherHawk,2014-07-30 13:16:00,
2014-07-30 08:21:00,61.4,49.5,29.99,NW,310,5.0,-999.0,65,0.00,,,0.00,372,WeatherHawk,2014-07-30 13:21:00,